Time;durP1;ratioP1;P1;durP2;ratioP2;P2;SDS_P1;SDS_P2;PMS_P1;PMS_P2;Temp;Humidity;BMP_temperature;BMP_pressure;BME280_temperature;BME280_humidity;BME280_pressure;Samples;Min_cycle;Max_cycle;Signal;HPM_P1;HPM_P2
2022/06/25 00:56:12;;;;;;;11.15;6.80;;;;;;;;;;5064824;28;20098;-70
2022/06/25 00:58:40;;;;;;;9.95;6.50;;;;;;;;;;5053078;28;20136;-70
2022/06/25 01:01:08;;;;;;;8.38;6.10;;;;;;;;;;5070397;28;20095;-69
2022/06/25 01:03:34;;;;;;;9.90;6.50;;;;;;;;;;5053153;28;20045;-69
2022/06/25 01:06:00;;;;;;;6.88;6.30;;;;;;;;;;5052732;28;20078;-68
2022/06/25 01:08:26;;;;;;;19.70;6.35;;;;;;;;;;5070474;28;20044;-69
2022/06/25 01:10:52;;;;;;;8.85;6.32;;;;;;;;;;5052816;28;20036;-69
2022/06/25 01:13:21;;;;;;;9.10;6.32;;;;;;;;;;5070392;28;20040;-68
2022/06/25 01:15:48;;;;;;;13.73;6.55;;;;;;;;;;5070374;28;20041;-70
2022/06/25 01:18:15;;;;;;;10.85;6.28;;;;;;;;;;5052347;28;20056;-69
2022/06/25 01:20:42;;;;;;;8.75;6.38;;;;;;;;;;5070310;28;20037;-70
2022/06/25 01:23:11;;;;;;;9.88;6.57;;;;;;;;;;5068917;28;20048;-68
2022/06/25 01:25:37;;;;;;;6.93;6.18;;;;;;;;;;5052269;28;20120;-69
2022/06/25 01:28:05;;;;;;;8.90;5.70;;;;;;;;;;5052484;28;20558;-69
2022/06/25 01:30:31;;;;;;;9.93;5.88;;;;;;;;;;5068967;28;20050;-70
2022/06/25 01:32:57;;;;;;;9.23;6.50;;;;;;;;;;5052647;28;20048;-70
2022/06/25 01:35:23;;;;;;;7.45;5.60;;;;;;;;;;5070376;28;20123;-69
2022/06/25 01:37:49;;;;;;;12.75;6.18;;;;;;;;;;5070450;28;20040;-70
2022/06/25 01:40:14;;;;;;;8.35;6.20;;;;;;;;;;5069720;28;20048;-71
2022/06/25 01:42:58;;;;;;;9.40;7.13;;;;;;;;;;5068821;28;20126;-70
2022/06/25 01:45:34;;;;;;;7.30;6.60;;;;;;;;;;5069628;28;20048;-70
2022/06/25 01:48:02;;;;;;;7.60;6.20;;;;;;;;;;5070037;28;20464;-69
2022/06/25 01:50:28;;;;;;;6.55;5.95;;;;;;;;;;5069567;28;20646;-70
2022/06/25 01:52:55;;;;;;;8.32;6.28;;;;;;;;;;5068567;28;20082;-68
2022/06/25 01:55:21;;;;;;;11.00;6.63;;;;;;;;;;5069277;28;20117;-69
2022/06/25 01:57:47;;;;;;;7.72;6.47;;;;;;;;;;5051859;28;20056;-69
2022/06/25 02:00:14;;;;;;;13.02;6.75;;;;;;;;;;5069417;28;20098;-70
2022/06/25 02:02:44;;;;;;;11.02;6.32;;;;;;;;;;5068609;28;20131;-70
2022/06/25 02:05:10;;;;;;;11.15;6.50;;;;;;;;;;5051472;28;20037;-69
2022/06/25 02:07:36;;;;;;;9.95;6.10;;;;;;;;;;5051871;28;20420;-69
2022/06/25 02:10:02;;;;;;;15.02;6.97;;;;;;;;;;5069468;28;20037;-68
2022/06/25 02:12:29;;;;;;;9.32;6.72;;;;;;;;;;5051444;28;20086;-70
2022/06/25 02:14:55;;;;;;;7.68;6.38;;;;;;;;;;5068332;28;20032;-68
2022/06/25 02:17:20;;;;;;;6.97;6.38;;;;;;;;;;5069578;28;20118;-68
2022/06/25 02:19:46;;;;;;;11.35;6.53;;;;;;;;;;5070231;28;20085;-69
2022/06/25 02:22:14;;;;;;;8.73;6.75;;;;;;;;;;5069163;28;20048;-69
2022/06/25 02:24:42;;;;;;;18.83;7.35;;;;;;;;;;5051971;28;20044;-69
2022/06/25 02:27:09;;;;;;;13.65;8.48;;;;;;;;;;5068699;28;20571;-70
2022/06/25 02:29:35;;;;;;;11.55;8.07;;;;;;;;;;5069373;28;20397;-68
2022/06/25 02:32:02;;;;;;;11.48;7.25;;;;;;;;;;5069370;28;20049;-70
2022/06/25 02:34:28;;;;;;;12.00;7.82;;;;;;;;;;5069110;28;20416;-71
2022/06/25 02:36:54;;;;;;;16.08;8.18;;;;;;;;;;5051294;28;20056;-68
2022/06/25 02:39:22;;;;;;;16.33;8.05;;;;;;;;;;5051285;28;20199;-70
2022/06/25 02:41:48;;;;;;;9.02;7.65;;;;;;;;;;5069382;28;20241;-69
2022/06/25 02:44:14;;;;;;;16.27;8.75;;;;;;;;;;5067951;28;20043;-70
2022/06/25 02:46:43;;;;;;;10.27;7.83;;;;;;;;;;5051380;28;20146;-69
2022/06/25 02:49:09;;;;;;;10.48;8.20;;;;;;;;;;5069527;28;20075;-68
2022/06/25 02:51:36;;;;;;;14.63;7.28;;;;;;;;;;5067828;28;20041;-68
2022/06/25 02:54:03;;;;;;;15.15;8.10;;;;;;;;;;5068110;28;20028;-70
2022/06/25 02:59:14;;;;;;;8.82;5.97;;;;;;;;;;5067622;28;20074;-70
2022/06/25 03:01:44;;;;;;;11.70;6.18;;;;;;;;;;5051120;28;20036;-69
2022/06/25 03:04:11;;;;;;;7.68;6.05;;;;;;;;;;5067676;28;20504;-70
2022/06/25 03:06:37;;;;;;;12.95;6.00;;;;;;;;;;5051008;28;20045;-69
2022/06/25 03:09:03;;;;;;;7.28;5.95;;;;;;;;;;5067797;28;20044;-69
2022/06/25 03:11:29;;;;;;;12.70;5.97;;;;;;;;;;5050780;28;20045;-70
2022/06/25 03:13:55;;;;;;;14.18;5.82;;;;;;;;;;5051225;28;20039;-69
2022/06/25 03:16:22;;;;;;;8.60;6.53;;;;;;;;;;5050619;28;20132;-69
2022/06/25 03:18:50;;;;;;;8.23;6.63;;;;;;;;;;5051124;28;20044;-70
2022/06/25 03:21:48;;;;;;;;;;;;;;;;;;5057405;28;20036;-70
2022/06/25 03:24:17;;;;;;;14.25;7.60;;;;;;;;;;5034022;28;19912;-69
2022/06/25 03:26:44;;;;;;;10.88;5.75;;;;;;;;;;5067581;28;20048;-69
2022/06/25 03:29:11;;;;;;;15.82;6.75;;;;;;;;;;5050767;28;20041;-70
2022/06/25 03:31:37;;;;;;;7.80;5.97;;;;;;;;;;5050797;28;20094;-70
2022/06/25 03:34:23;;;;;;;11.73;6.20;;;;;;;;;;5068477;28;20084;-69
2022/06/25 03:36:51;;;;;;;20.95;6.78;;;;;;;;;;5050666;28;20060;-68
2022/06/25 03:39:17;;;;;;;14.77;6.85;;;;;;;;;;5067427;28;20501;-69
2022/06/25 03:41:43;;;;;;;9.52;5.80;;;;;;;;;;5054371;28;20534;-69
2022/06/25 03:44:27;;;;;;;9.43;6.25;;;;;;;;;;5054129;28;20582;-70
2022/06/25 03:47:01;;;;;;;8.75;6.10;;;;;;;;;;5054289;28;20052;-70
2022/06/25 03:49:29;;;;;;;11.65;5.53;;;;;;;;;;5054020;28;20044;-69
2022/06/25 03:51:57;;;;;;;11.00;5.57;;;;;;;;;;5054268;28;20508;-69
2022/06/25 03:54:23;;;;;;;11.00;5.32;;;;;;;;;;5070833;28;20041;-67
2022/06/25 03:56:50;;;;;;;8.02;5.30;;;;;;;;;;5054157;28;20075;-68
2022/06/25 03:59:18;;;;;;;10.80;5.40;;;;;;;;;;5054548;28;20041;-68
2022/06/25 04:01:45;;;;;;;6.35;4.93;;;;;;;;;;5054198;28;20044;-69
2022/06/25 04:04:13;;;;;;;8.75;4.85;;;;;;;;;;5070682;28;20531;-70
2022/06/25 04:06:39;;;;;;;14.05;5.30;;;;;;;;;;5053585;28;20044;-69
2022/06/25 04:09:06;;;;;;;9.95;5.22;;;;;;;;;;5070774;28;20052;-70
2022/06/25 04:11:32;;;;;;;6.40;5.40;;;;;;;;;;5053528;28;20127;-70
2022/06/25 04:14:00;;;;;;;8.75;5.47;;;;;;;;;;5054041;28;20044;-69
2022/06/25 04:16:26;;;;;;;6.18;5.28;;;;;;;;;;5053398;28;20520;-70
2022/06/25 04:18:53;;;;;;;7.78;5.05;;;;;;;;;;5070387;28;20044;-71
2022/06/25 04:21:24;;;;;;;5.43;4.60;;;;;;;;;;5053336;28;20041;-70
2022/06/25 04:23:50;;;;;;;9.15;4.78;;;;;;;;;;5070549;28;20570;-70
2022/06/25 04:26:17;;;;;;;11.82;5.10;;;;;;;;;;5053298;28;20086;-71
2022/06/25 04:31:51;;;;;;;7.32;4.53;;;;;;;;;;5071028;28;20071;-70
2022/06/25 04:34:35;;;;;;;8.77;5.32;;;;;;;;;;5071039;28;20441;-70
2022/06/25 04:37:01;;;;;;;4.90;4.50;;;;;;;;;;5070327;28;20055;-71
2022/06/25 04:39:27;;;;;;;7.45;4.60;;;;;;;;;;5054433;28;20424;-70
2022/06/25 04:41:53;;;;;;;7.95;4.78;;;;;;;;;;5053750;28;20082;-69
2022/06/25 04:44:21;;;;;;;7.78;4.78;;;;;;;;;;5069949;28;20531;-69
2022/06/25 04:46:48;;;;;;;9.43;5.03;;;;;;;;;;5053129;28;20032;-68
2022/06/25 04:49:16;;;;;;;6.10;4.88;;;;;;;;;;5037104;28;20044;-70
2022/06/25 04:51:44;;;;;;;5.55;4.13;;;;;;;;;;5052479;28;20079;-70
2022/06/25 04:54:10;;;;;;;5.93;4.45;;;;;;;;;;5053210;28;20357;-70
2022/06/25 04:56:39;;;;;;;5.60;5.10;;;;;;;;;;5052463;28;20044;-71
2022/06/25 04:59:05;;;;;;;9.68;5.50;;;;;;;;;;5036385;28;20041;-71
2022/06/25 05:01:50;;;;;;;5.30;4.50;;;;;;;;;;5052570;28;20545;-71
2022/06/25 05:04:17;;;;;;;8.43;4.85;;;;;;;;;;5052867;28;20127;-69
2022/06/25 05:06:44;;;;;;;4.80;4.40;;;;;;;;;;5052502;28;20194;-71
2022/06/25 05:09:10;;;;;;;6.00;5.25;;;;;;;;;;5069507;28;20056;-70
2022/06/25 05:11:36;;;;;;;6.82;5.00;;;;;;;;;;5052563;28;20375;-70
2022/06/25 05:14:02;;;;;;;7.05;4.82;;;;;;;;;;5052905;28;20044;-69
2022/06/25 05:16:28;;;;;;;5.50;5.10;;;;;;;;;;5052428;28;20048;-70
2022/06/25 05:18:55;;;;;;;8.50;5.03;;;;;;;;;;5070488;28;20040;-70
2022/06/25 05:21:21;;;;;;;8.77;4.78;;;;;;;;;;5052436;28;20048;-69
2022/06/25 05:23:47;;;;;;;7.28;4.80;;;;;;;;;;5052635;28;20588;-70
2022/06/25 05:26:13;;;;;;;6.43;4.93;;;;;;;;;;5070298;28;20048;-70
2022/06/25 05:28:40;;;;;;;5.82;4.82;;;;;;;;;;5052390;28;20505;-69
2022/06/25 05:31:07;;;;;;;7.78;4.97;;;;;;;;;;5068868;28;20033;-70
2022/06/25 05:33:33;;;;;;;7.70;4.45;;;;;;;;;;5052165;28;20051;-71
2022/06/25 05:35:59;;;;;;;7.30;4.80;;;;;;;;;;5070258;28;20041;-69
2022/06/25 05:38:25;;;;;;;5.65;4.90;;;;;;;;;;5070250;28;20118;-69
2022/06/25 05:40:51;;;;;;;6.38;5.20;;;;;;;;;;5053203;28;20064;-71
2022/06/25 05:43:16;;;;;;;5.30;4.90;;;;;;;;;;5053866;28;20048;-70
2022/06/25 05:45:42;;;;;;;7.35;5.85;;;;;;;;;;5070751;28;20043;-71
2022/06/25 05:48:08;;;;;;;7.10;5.35;;;;;;;;;;5070064;28;20040;-70
2022/06/25 05:50:34;;;;;;;5.43;4.80;;;;;;;;;;5070622;28;20083;-70
2022/06/25 05:53:00;;;;;;;5.60;4.97;;;;;;;;;;5070813;28;20048;-70
2022/06/25 05:55:26;;;;;;;11.10;7.55;;;;;;;;;;5070606;28;20040;-69
2022/06/25 05:57:52;;;;;;;5.30;4.80;;;;;;;;;;5069951;28;20051;-70
2022/06/25 06:00:17;;;;;;;7.88;5.10;;;;;;;;;;5069958;28;20033;-70
2022/06/25 06:02:44;;;;;;;6.50;5.50;;;;;;;;;;5050952;28;20051;-70
2022/06/25 06:05:10;;;;;;;8.50;4.90;;;;;;;;;;5069819;28;20086;-71
2022/06/25 06:07:35;;;;;;;7.80;5.40;;;;;;;;;;5069339;28;20137;-71
2022/06/25 06:10:01;;;;;;;6.28;4.40;;;;;;;;;;5069799;28;20048;-70
2022/06/25 06:12:28;;;;;;;5.65;5.22;;;;;;;;;;5069285;28;20051;-72
2022/06/25 06:14:54;;;;;;;5.28;4.70;;;;;;;;;;5069592;28;20532;-69
2022/06/25 06:17:21;;;;;;;4.88;4.47;;;;;;;;;;5069579;28;20052;-70
2022/06/25 06:19:46;;;;;;;6.43;4.85;;;;;;;;;;5051375;28;20049;-71
2022/06/25 06:22:12;;;;;;;6.13;4.65;;;;;;;;;;5069447;28;20067;-71
2022/06/25 06:24:38;;;;;;;4.30;4.00;;;;;;;;;;5069245;28;20072;-71
2022/06/25 06:27:05;;;;;;;5.18;4.68;;;;;;;;;;5035114;28;20040;-71
2022/06/25 06:29:30;;;;;;;4.65;4.25;;;;;;;;;;5051184;28;20040;-71
2022/06/25 06:31:56;;;;;;;5.35;4.45;;;;;;;;;;5069362;28;20045;-71
2022/06/25 06:34:22;;;;;;;4.72;4.32;;;;;;;;;;5069531;28;20064;-71
2022/06/25 06:36:48;;;;;;;5.38;4.20;;;;;;;;;;5069062;28;20052;-69
2022/06/25 06:39:14;;;;;;;4.68;4.38;;;;;;;;;;5051597;28;20521;-70
2022/06/25 06:41:40;;;;;;;6.30;4.15;;;;;;;;;;5068943;28;20048;-71
2022/06/25 06:44:06;;;;;;;4.10;3.80;;;;;;;;;;5051394;28;20044;-71
2022/06/25 06:46:32;;;;;;;6.10;4.32;;;;;;;;;;5068953;28;20056;-71
2022/06/25 06:48:58;;;;;;;5.30;4.28;;;;;;;;;;5051447;28;20394;-70
2022/06/25 06:51:24;;;;;;;6.65;4.28;;;;;;;;;;5069317;28;20139;-70
2022/06/25 06:53:50;;;;;;;4.32;4.03;;;;;;;;;;5068001;28;20124;-72
2022/06/25 06:56:15;;;;;;;4.65;4.25;;;;;;;;;;5068957;28;20056;-72
2022/06/25 06:58:41;;;;;;;4.20;3.90;;;;;;;;;;5068872;28;20116;-71
2022/06/25 07:01:07;;;;;;;5.38;4.10;;;;;;;;;;5069509;28;20091;-70
2022/06/25 07:03:33;;;;;;;5.18;4.15;;;;;;;;;;5069043;28;20160;-70
2022/06/25 07:05:59;;;;;;;6.55;4.53;;;;;;;;;;5069219;28;20049;-71
2022/06/25 07:08:26;;;;;;;4.68;4.25;;;;;;;;;;5069286;28;20044;-71
2022/06/25 07:10:52;;;;;;;4.20;3.90;;;;;;;;;;5051222;28;20087;-69
2022/06/25 07:13:18;;;;;;;3.63;3.42;;;;;;;;;;5051612;28;20045;-70
2022/06/25 07:15:44;;;;;;;5.60;3.50;;;;;;;;;;5072675;28;20045;-70
2022/06/25 07:18:10;;;;;;;3.58;3.28;;;;;;;;;;5054786;28;20082;-71
2022/06/25 07:20:36;;;;;;;4.50;3.65;;;;;;;;;;5072695;28;20044;-69
2022/06/25 07:23:02;;;;;;;3.85;3.55;;;;;;;;;;5055090;28;20044;-70
2022/06/25 07:25:28;;;;;;;3.83;3.63;;;;;;;;;;5072558;28;20047;-72
2022/06/25 07:27:54;;;;;;;9.82;3.80;;;;;;;;;;5072452;28;20051;-70
2022/06/25 07:30:20;;;;;;;3.95;3.13;;;;;;;;;;5072669;28;20411;-70
2022/06/25 07:32:46;;;;;;;4.95;3.58;;;;;;;;;;5072355;28;20044;-71
2022/06/25 07:35:12;;;;;;;6.55;3.75;;;;;;;;;;5072797;28;20036;-72
2022/06/25 07:37:38;;;;;;;3.80;3.50;;;;;;;;;;5072057;28;20059;-71
2022/06/25 07:40:04;;;;;;;3.63;3.42;;;;;;;;;;5072467;28;20123;-69
2022/06/25 07:42:31;;;;;;;5.13;3.72;;;;;;;;;;5071887;28;20086;-71
2022/06/25 07:44:58;;;;;;;4.97;3.60;;;;;;;;;;5072576;28;20044;-71
2022/06/25 07:47:24;;;;;;;3.65;3.45;;;;;;;;;;5072283;28;20045;-71
2022/06/25 07:52:34;;;;;;;7.93;3.58;;;;;;;;;;5072081;28;20044;-72
2022/06/25 07:55:00;;;;;;;5.82;3.70;;;;;;;;;;5072243;28;20040;-70
2022/06/25 07:57:26;;;;;;;5.97;3.67;;;;;;;;;;5071870;28;20524;-69
2022/06/25 07:59:52;;;;;;;3.42;3.13;;;;;;;;;;5054198;28;20037;-71
2022/06/25 08:02:18;;;;;;;5.13;3.17;;;;;;;;;;5054239;28;20451;-71
2022/06/25 08:04:44;;;;;;;3.80;3.60;;;;;;;;;;5071772;28;20055;-70
2022/06/25 08:07:09;;;;;;;5.18;3.97;;;;;;;;;;5054152;28;20048;-71
2022/06/25 08:09:36;;;;;;;4.38;4.00;;;;;;;;;;5071923;28;20051;-72
2022/06/25 08:12:02;;;;;;;4.28;3.70;;;;;;;;;;5053941;28;20037;-71
2022/06/25 08:14:28;;;;;;;5.20;3.60;;;;;;;;;;5071904;28;20045;-71
2022/06/25 08:16:54;;;;;;;5.47;4.05;;;;;;;;;;5071530;28;20067;-72
2022/06/25 08:19:21;;;;;;;4.05;3.40;;;;;;;;;;5071796;28;20041;-71
2022/06/25 08:21:47;;;;;;;3.97;3.65;;;;;;;;;;5071631;28;20043;-71
2022/06/25 08:24:13;;;;;;;4.05;3.63;;;;;;;;;;5073444;28;20048;-71
2022/06/25 08:26:39;;;;;;;5.85;4.20;;;;;;;;;;5036297;28;20415;-70
2022/06/25 08:29:05;;;;;;;4.10;3.80;;;;;;;;;;5072177;28;20068;-72
2022/06/25 08:31:31;;;;;;;4.88;3.78;;;;;;;;;;5071027;28;20053;-70
2022/06/25 08:33:58;;;;;;;4.03;3.63;;;;;;;;;;5071550;28;20063;-70
2022/06/25 08:36:24;;;;;;;7.75;4.03;;;;;;;;;;5071377;28;20101;-70
2022/06/25 08:38:51;;;;;;;3.88;3.60;;;;;;;;;;5053079;28;20079;-73
2022/06/25 08:41:17;;;;;;;5.68;3.65;;;;;;;;;;5053341;28;20056;-70
2022/06/25 08:43:43;;;;;;;6.63;5.68;;;;;;;;;;5071932;28;20390;-70
2022/06/25 08:46:09;;;;;;;5.15;4.15;;;;;;;;;;5072441;28;20051;-70
2022/06/25 08:48:37;;;;;;;4.60;4.18;;;;;;;;;;5053903;28;20056;-72
2022/06/25 08:51:03;;;;;;;4.15;3.88;;;;;;;;;;5071684;28;20525;-72
2022/06/25 08:53:30;;;;;;;4.10;3.80;;;;;;;;;;5053389;28;20435;-71
2022/06/25 08:55:56;;;;;;;4.10;3.70;;;;;;;;;;5070717;28;20068;-70
2022/06/25 08:58:22;;;;;;;5.20;3.60;;;;;;;;;;5036445;28;20041;-71
2022/06/25 09:00:48;;;;;;;4.15;3.70;;;;;;;;;;5070770;28;20101;-72
2022/06/25 09:03:14;;;;;;;3.85;3.53;;;;;;;;;;5070975;28;20561;-70
2022/06/25 09:05:41;;;;;;;4.82;3.80;;;;;;;;;;5070475;28;20505;-70
2022/06/25 09:08:08;;;;;;;3.85;3.55;;;;;;;;;;5052855;28;20106;-70
2022/06/25 09:10:34;;;;;;;4.10;3.70;;;;;;;;;;5070679;28;20420;-69
2022/06/25 09:13:00;;;;;;;4.35;4.00;;;;;;;;;;5070698;28;20106;-71
2022/06/25 09:15:30;;;;;;;4.80;4.40;;;;;;;;;;5070748;28;20041;-70
2022/06/25 09:17:56;;;;;;;5.07;3.40;;;;;;;;;;5070420;28;20599;-71
2022/06/25 09:20:22;;;;;;;4.07;3.70;;;;;;;;;;5052915;28;20036;-69
2022/06/25 09:22:52;;;;;;;5.03;3.88;;;;;;;;;;5070209;28;20044;-71
2022/06/25 09:25:22;;;;;;;4.25;3.78;;;;;;;;;;5070427;28;20044;-70
2022/06/25 09:27:48;;;;;;;3.70;3.40;;;;;;;;;;5070006;28;20045;-70
2022/06/25 09:30:16;;;;;;;3.97;3.55;;;;;;;;;;5070485;28;20037;-71
2022/06/25 09:32:53;;;;;;;7.63;3.63;;;;;;;;;;5070077;28;20040;-69
2022/06/25 09:35:28;;;;;;;5.15;4.43;;;;;;;;;;5070587;28;20460;-68
2022/06/25 09:37:59;;;;;;;7.25;4.10;;;;;;;;;;5069792;28;20583;-70
2022/06/25 09:40:25;;;;;;;5.72;4.10;;;;;;;;;;5070325;28;20048;-70
2022/06/25 09:42:51;;;;;;;7.32;4.20;;;;;;;;;;5069796;28;20059;-71
2022/06/25 09:45:17;;;;;;;6.28;4.45;;;;;;;;;;5070358;28;20028;-70
2022/06/25 09:47:43;;;;;;;5.47;3.50;;;;;;;;;;5069595;28;20087;-69
2022/06/25 09:50:19;;;;;;;4.38;3.97;;;;;;;;;;5035674;28;20089;-70
2022/06/25 09:53:03;;;;;;;6.68;3.30;;;;;;;;;;5069729;28;20536;-71
2022/06/25 09:55:30;;;;;;;5.60;3.83;;;;;;;;;;5070131;28;20040;-70
2022/06/25 09:57:56;;;;;;;3.90;3.60;;;;;;;;;;5051390;28;20044;-69
2022/06/25 10:00:22;;;;;;;7.10;3.38;;;;;;;;;;5070070;28;20049;-70
2022/06/25 10:02:49;;;;;;;6.82;3.47;;;;;;;;;;5069551;28;20033;-69
2022/06/25 10:05:18;;;;;;;3.88;3.30;;;;;;;;;;5069921;28;20083;-71
2022/06/25 10:07:59;;;;;;;3.47;3.25;;;;;;;;;;5051582;28;20123;-69
2022/06/25 10:10:25;;;;;;;3.72;3.45;;;;;;;;;;5052063;28;20048;-70
2022/06/25 10:12:51;;;;;;;9.13;3.63;;;;;;;;;;5069383;28;20121;-69
2022/06/25 10:15:19;;;;;;;4.60;3.55;;;;;;;;;;5069903;28;20071;-69
2022/06/25 10:17:45;;;;;;;8.00;3.50;;;;;;;;;;5069338;28;20097;-70
2022/06/25 10:20:12;;;;;;;7.32;3.40;;;;;;;;;;5051778;28;20070;-69
2022/06/25 10:22:38;;;;;;;7.45;3.90;;;;;;;;;;5069257;28;20032;-71
2022/06/25 10:25:04;;;;;;;4.70;3.25;;;;;;;;;;5069807;28;20079;-68
2022/06/25 10:27:37;;;;;;;3.47;3.28;;;;;;;;;;5051792;28;20049;-68
2022/06/25 10:30:03;;;;;;;3.92;3.60;;;;;;;;;;5069677;28;20047;-70
2022/06/25 10:32:34;;;;;;;3.70;3.20;;;;;;;;;;5069553;28;20047;-70
2022/06/25 10:35:03;;;;;;;4.00;3.40;;;;;;;;;;5069368;28;20062;-69
2022/06/25 10:37:49;;;;;;;3.38;3.17;;;;;;;;;;5069300;28;20040;-70
2022/06/25 10:40:16;;;;;;;3.70;3.35;;;;;;;;;;5041104;28;20036;-69
2022/06/25 10:43:00;;;;;;;4.18;3.50;;;;;;;;;;5035488;28;20048;-70
2022/06/25 10:45:26;;;;;;;4.00;3.70;;;;;;;;;;5069601;28;20115;-69
2022/06/25 10:47:52;;;;;;;3.80;3.50;;;;;;;;;;5068868;28;20060;-70
2022/06/25 10:50:21;;;;;;;4.38;3.60;;;;;;;;;;5039378;28;20513;-70
2022/06/25 10:53:03;;;;;;;3.00;2.80;;;;;;;;;;5073163;28;20527;-69
2022/06/25 10:55:34;;;;;;;3.92;3.40;;;;;;;;;;5073680;28;20061;-69
2022/06/25 10:58:11;;;;;;;2.97;2.70;;;;;;;;;;5072839;28;20056;-69
2022/06/25 11:00:48;;;;;;;4.13;2.88;;;;;;;;;;5055364;28;20071;-70
2022/06/25 11:03:15;;;;;;;6.50;2.90;;;;;;;;;;5072971;28;20420;-70
2022/06/25 11:05:41;;;;;;;3.80;3.50;;;;;;;;;;5055133;28;20049;-71
2022/06/25 11:08:07;;;;;;;3.35;3.05;;;;;;;;;;5073041;28;20438;-69
2022/06/25 11:10:37;;;;;;;5.63;3.33;;;;;;;;;;5039068;28;20033;-70
2022/06/25 11:13:06;;;;;;;3.17;2.97;;;;;;;;;;5072684;28;20520;-70
2022/06/25 11:15:42;;;;;;;4.43;2.87;;;;;;;;;;5073106;28;20040;-70
2022/06/25 11:18:14;;;;;;;3.35;3.08;;;;;;;;;;5072888;28;20539;-70
2022/06/25 11:20:40;;;;;;;3.63;3.42;;;;;;;;;;5072704;28;20044;-70
2022/06/25 11:23:09;;;;;;;3.70;3.25;;;;;;;;;;5072889;28;20068;-70
2022/06/25 11:28:48;;;;;;;5.65;3.13;;;;;;;;;;5072647;28;20037;-70
2022/06/25 11:31:14;;;;;;;5.82;3.20;;;;;;;;;;5073103;28;20051;-70
2022/06/25 11:33:40;;;;;;;8.07;3.78;;;;;;;;;;5054603;28;20037;-69
2022/06/25 11:36:07;;;;;;;4.05;2.88;;;;;;;;;;5038289;28;20122;-69
2022/06/25 11:38:33;;;;;;;3.10;2.83;;;;;;;;;;5054495;28;20052;-68
2022/06/25 11:40:58;;;;;;;5.57;3.33;;;;;;;;;;5054384;28;20108;-70
2022/06/25 11:43:26;;;;;;;3.33;3.00;;;;;;;;;;5072394;28;20069;-70
2022/06/25 11:45:52;;;;;;;5.85;3.08;;;;;;;;;;5072262;28;20051;-71
2022/06/25 11:48:18;;;;;;;3.17;2.97;;;;;;;;;;5054433;28;20139;-70
2022/06/25 11:50:45;;;;;;;4.03;2.70;;;;;;;;;;5037773;28;20163;-71
2022/06/25 11:53:11;;;;;;;4.88;2.92;;;;;;;;;;5072169;28;20064;-70
2022/06/25 11:55:39;;;;;;;3.63;3.33;;;;;;;;;;5072070;28;20064;-69
2022/06/25 11:58:05;;;;;;;4.10;3.50;;;;;;;;;;5071526;28;20044;-69
2022/06/25 12:00:31;;;;;;;6.70;3.42;;;;;;;;;;5070958;28;20063;-70
2022/06/25 12:03:00;;;;;;;6.63;3.38;;;;;;;;;;5071864;28;20508;-70
2022/06/25 12:05:26;;;;;;;3.05;2.80;;;;;;;;;;5071827;28;20056;-71
2022/06/25 12:07:55;;;;;;;3.97;3.58;;;;;;;;;;5071404;28;20094;-70
2022/06/25 12:10:21;;;;;;;3.85;3.55;;;;;;;;;;5072031;28;20048;-71
2022/06/25 12:12:48;;;;;;;4.18;3.00;;;;;;;;;;5071530;28;20043;-71
2022/06/25 12:15:15;;;;;;;3.35;3.13;;;;;;;;;;5071716;28;20044;-69
2022/06/25 12:17:40;;;;;;;5.75;2.85;;;;;;;;;;5070123;28;20048;-70
2022/06/25 12:20:07;;;;;;;3.65;3.15;;;;;;;;;;5053682;28;20608;-70
2022/06/25 12:22:35;;;;;;;3.47;3.08;;;;;;;;;;5071840;28;20036;-70
2022/06/25 12:25:01;;;;;;;3.10;2.90;;;;;;;;;;5071835;28;20408;-70
2022/06/25 12:27:26;;;;;;;5.85;3.03;;;;;;;;;;5071655;28;20058;-73
2022/06/25 12:29:55;;;;;;;3.65;3.00;;;;;;;;;;5071346;28;20075;-70
2022/06/25 12:32:37;;;;;;;3.65;2.90;;;;;;;;;;5049284;28;20067;-70
2022/06/25 12:35:03;;;;;;;4.28;3.15;;;;;;;;;;5051066;28;20322;-69
2022/06/25 12:37:30;;;;;;;5.10;3.65;;;;;;;;;;5016865;28;20044;-69
2022/06/25 12:39:59;;;;;;;6.95;3.67;;;;;;;;;;5051191;28;20461;-70
2022/06/25 12:42:33;;;;;;;4.20;3.47;;;;;;;;;;5051151;28;20045;-69
2022/06/25 12:44:58;;;;;;;6.68;3.63;;;;;;;;;;5033194;28;20318;-70
2022/06/25 12:47:24;;;;;;;3.53;3.33;;;;;;;;;;5051057;28;20520;-70
2022/06/25 12:49:51;;;;;;;7.53;3.53;;;;;;;;;;5051462;28;20067;-71
2022/06/25 12:52:19;;;;;;;3.35;2.95;;;;;;;;;;5034719;28;20098;-70
2022/06/25 12:54:52;;;;;;;3.22;2.80;;;;;;;;;;5034275;28;20037;-71
2022/06/25 12:57:18;;;;;;;3.20;2.95;;;;;;;;;;5050622;28;20049;-70
2022/06/25 12:59:45;;;;;;;4.70;3.15;;;;;;;;;;5016857;28;20505;-70
2022/06/25 13:02:11;;;;;;;5.80;3.25;;;;;;;;;;5016211;28;20041;-71
2022/06/25 13:04:37;;;;;;;3.72;2.85;;;;;;;;;;5050959;28;20057;-70
2022/06/25 13:07:03;;;;;;;7.60;3.92;;;;;;;;;;5050490;28;20059;-71
2022/06/25 13:09:29;;;;;;;5.63;3.08;;;;;;;;;;5050954;28;20049;-70
2022/06/25 13:11:55;;;;;;;4.65;3.40;;;;;;;;;;5050297;28;20044;-71
2022/06/25 13:14:21;;;;;;;5.43;3.45;;;;;;;;;;5050776;28;20052;-69
2022/06/25 13:16:46;;;;;;;4.82;3.35;;;;;;;;;;5016523;28;20041;-70
2022/06/25 13:19:12;;;;;;;4.38;3.38;;;;;;;;;;5050561;28;20124;-69
2022/06/25 13:21:38;;;;;;;5.10;2.92;;;;;;;;;;5050525;28;20095;-70
2022/06/25 13:24:04;;;;;;;3.70;3.40;;;;;;;;;;5050030;28;20513;-70
2022/06/25 13:26:30;;;;;;;3.42;3.20;;;;;;;;;;5032531;28;20037;-70
2022/06/25 13:28:56;;;;;;;6.47;3.33;;;;;;;;;;5050174;28;20669;-68
2022/06/25 13:31:22;;;;;;;7.90;3.50;;;;;;;;;;5050648;28;20049;-70
2022/06/25 13:33:48;;;;;;;3.42;3.15;;;;;;;;;;5050211;28;20041;-70
2022/06/25 13:36:14;;;;;;;5.78;4.15;;;;;;;;;;5050186;28;20048;-70
2022/06/25 13:38:40;;;;;;;3.67;3.00;;;;;;;;;;5050222;28;20044;-70
2022/06/25 13:41:06;;;;;;;4.18;3.72;;;;;;;;;;5049996;28;20424;-70
2022/06/25 13:43:31;;;;;;;6.28;3.10;;;;;;;;;;5050114;28;20474;-70
2022/06/25 13:45:57;;;;;;;3.80;3.33;;;;;;;;;;5049823;28;20045;-71
2022/06/25 13:48:23;;;;;;;3.28;3.08;;;;;;;;;;5050083;28;20507;-70
2022/06/25 13:50:49;;;;;;;4.13;3.88;;;;;;;;;;5032067;28;20127;-71
2022/06/25 13:53:15;;;;;;;3.25;3.05;;;;;;;;;;5049864;28;20725;-70
2022/06/25 13:55:41;;;;;;;4.78;2.78;;;;;;;;;;5049965;28;20120;-71
2022/06/25 13:58:07;;;;;;;4.72;3.40;;;;;;;;;;5031938;28;20149;-70
2022/06/25 14:00:33;;;;;;;3.10;2.90;;;;;;;;;;5015766;28;20063;-71
2022/06/25 14:02:59;;;;;;;3.25;2.92;;;;;;;;;;5032466;28;20076;-70
2022/06/25 14:05:25;;;;;;;4.07;3.40;;;;;;;;;;5049931;28;20047;-70
2022/06/25 14:07:50;;;;;;;5.97;4.40;;;;;;;;;;5049395;28;20143;-72
2022/06/25 14:10:16;;;;;;;6.40;3.10;;;;;;;;;;5049787;28;20140;-71
2022/06/25 14:12:42;;;;;;;4.10;3.60;;;;;;;;;;5049700;28;20072;-70
2022/06/25 14:15:08;;;;;;;4.70;3.65;;;;;;;;;;5049431;28;20123;-71
2022/06/25 14:17:34;;;;;;;4.38;3.60;;;;;;;;;;5049882;28;20041;-71
2022/06/25 14:20:02;;;;;;;4.07;3.60;;;;;;;;;;5031736;28;20064;-71
2022/06/25 14:22:29;;;;;;;3.78;3.58;;;;;;;;;;5031613;28;20045;-69
2022/06/25 14:27:39;;;;;;;6.28;3.80;;;;;;;;;;5049250;28;20092;-71
2022/06/25 14:30:05;;;;;;;8.77;3.92;;;;;;;;;;5049259;28;20466;-71
2022/06/25 14:32:31;;;;;;;9.15;3.97;;;;;;;;;;5049346;28;20049;-69
2022/06/25 14:34:57;;;;;;;4.68;3.58;;;;;;;;;;5049187;28;20127;-70
2022/06/25 14:42:53;;;;;;;3.47;3.28;;;;;;;;;;5048935;28;20529;-70
2022/06/25 14:45:19;;;;;;;3.20;3.00;;;;;;;;;;5049722;28;20132;-71
2022/06/25 14:47:44;;;;;;;5.00;3.63;;;;;;;;;;5049088;28;20616;-70
2022/06/25 14:50:10;;;;;;;4.53;3.05;;;;;;;;;;5031299;28;20048;-71
2022/06/25 14:52:36;;;;;;;5.72;2.80;;;;;;;;;;5048931;28;20045;-69
2022/06/25 14:55:04;;;;;;;4.28;3.08;;;;;;;;;;5048970;28;20071;-71
2022/06/25 14:57:30;;;;;;;4.40;3.15;;;;;;;;;;5048900;28;20049;-70
2022/06/25 14:59:56;;;;;;;3.22;2.92;;;;;;;;;;5048794;28;20041;-69
2022/06/25 15:02:22;;;;;;;3.38;3.10;;;;;;;;;;5049281;28;20040;-71
2022/06/25 15:04:48;;;;;;;4.53;3.30;;;;;;;;;;5049119;28;20041;-70
2022/06/25 15:07:15;;;;;;;7.00;5.68;;;;;;;;;;5048833;28;20037;-71
2022/06/25 15:09:41;;;;;;;10.18;8.90;;;;;;;;;;5030859;28;20041;-71
2022/06/25 15:12:07;;;;;;;7.25;5.25;;;;;;;;;;5048786;28;20029;-69
2022/06/25 15:14:33;;;;;;;7.60;4.03;;;;;;;;;;5048994;28;20121;-70
2022/06/25 15:16:59;;;;;;;3.60;3.17;;;;;;;;;;5048950;28;20807;-71
2022/06/25 15:19:24;;;;;;;4.18;3.55;;;;;;;;;;5031120;28;20214;-71
2022/06/25 15:21:50;;;;;;;3.65;3.35;;;;;;;;;;5049011;28;20493;-69
2022/06/25 15:24:16;;;;;;;3.53;3.33;;;;;;;;;;5048788;28;20049;-72
2022/06/25 15:26:42;;;;;;;4.35;3.92;;;;;;;;;;5049014;28;20029;-69
2022/06/25 15:29:08;;;;;;;6.30;4.35;;;;;;;;;;5048394;28;20671;-70
2022/06/25 15:31:35;;;;;;;5.30;3.90;;;;;;;;;;5048926;28;20544;-69
2022/06/25 15:34:00;;;;;;;7.28;6.60;;;;;;;;;;5048585;28;20076;-70
2022/06/25 15:36:29;;;;;;;6.15;3.90;;;;;;;;;;5034428;28;20165;-70
2022/06/25 15:38:55;;;;;;;4.03;3.72;;;;;;;;;;5034636;28;20666;-70
2022/06/25 15:41:22;;;;;;;7.15;3.55;;;;;;;;;;5052622;28;20033;-70
2022/06/25 15:43:48;;;;;;;3.67;3.30;;;;;;;;;;5035827;28;20045;-70
2022/06/25 15:46:14;;;;;;;4.80;3.00;;;;;;;;;;5051962;28;20064;-70
2022/06/25 15:48:40;;;;;;;4.07;3.50;;;;;;;;;;5051947;28;20049;-70
2022/06/25 15:51:06;;;;;;;5.25;3.90;;;;;;;;;;5052089;28;20556;-69
2022/06/25 15:53:32;;;;;;;4.70;3.85;;;;;;;;;;5052186;28;20136;-70
2022/06/25 15:55:58;;;;;;;4.28;3.13;;;;;;;;;;5051648;28;20115;-69